createdAt,value
2023-03-24T00:00:23.342Z,92.42
2023-03-24T00:01:24.047Z,92.32
2023-03-24T00:02:23.372Z,92.21
2023-03-24T00:03:23.366Z,92.32
2023-03-24T00:04:23.638Z,92.32
2023-03-24T00:05:23.282Z,92.32
2023-03-24T00:06:23.642Z,92.32
2023-03-24T00:07:25.103Z,92.32
2023-03-24T00:08:23.280Z,92.32
2023-03-24T00:09:23.315Z,92.21
2023-03-24T00:10:23.664Z,92.21
2023-03-24T00:11:23.380Z,92.11
2023-03-24T00:12:23.741Z,92.21
2023-03-24T00:13:23.278Z,92.21
2023-03-24T00:14:23.141Z,92.32
2023-03-24T00:15:23.190Z,92.32
2023-03-24T00:16:23.597Z,92.42
2023-03-24T00:17:23.101Z,92.21
2023-03-24T00:18:23.131Z,92.32
2023-03-24T00:19:23.061Z,92.42
2023-03-24T00:20:23.076Z,92.42
2023-03-24T00:21:23.660Z,92.42
2023-03-24T00:22:23.426Z,92.36
2023-03-24T00:23:23.035Z,92.46
2023-03-24T00:24:23.050Z,92.66
2023-03-24T00:25:23.081Z,92.56
2023-03-24T00:26:23.019Z,92.56
2023-03-24T00:27:22.975Z,92.46
2023-03-24T00:28:23.194Z,92.36
2023-03-24T00:29:22.952Z,92.32
2023-03-24T00:30:23.858Z,92.46
2023-03-24T00:31:22.927Z,92.32
2023-03-24T00:32:23.023Z,92.32
2023-03-24T00:33:23.228Z,92.21
2023-03-24T00:34:23.582Z,92.36
2023-03-24T00:35:22.888Z,92.25
2023-03-24T00:36:22.864Z,92.25
2023-03-24T00:37:23.389Z,92.25
2023-03-24T00:38:22.848Z,92.21
2023-03-24T00:39:23.033Z,92.11
2023-03-24T00:40:23.019Z,92.11
2023-03-24T00:41:22.835Z,92.25
2023-03-24T00:42:22.801Z,92.11
2023-03-24T00:43:22.785Z,92.05
2023-03-24T00:44:22.773Z,92.15
2023-03-24T00:45:22.901Z,92.25
2023-03-24T00:46:23.037Z,92.25
2023-03-24T00:47:22.737Z,92.15
2023-03-24T00:48:23.078Z,92.05
2023-03-24T00:49:22.771Z,92.05
2023-03-24T00:50:22.701Z,92.11
2023-03-24T00:51:22.670Z,92.11
2023-03-24T00:52:23.380Z,92.01
2023-03-24T00:53:22.654Z,92.01
2023-03-24T00:54:22.682Z,91.91
2023-03-24T00:55:22.598Z,91.91
2023-03-24T00:56:22.688Z,91.80
2023-03-24T00:57:22.671Z,91.91
2023-03-24T00:58:22.572Z,91.91
2023-03-24T00:59:22.546Z,91.91
2023-03-24T01:00:22.573Z,91.91
2023-03-24T01:01:22.788Z,91.80
2023-03-24T01:02:22.824Z,91.80
2023-03-24T01:03:22.514Z,91.91
2023-03-24T01:04:22.493Z,91.80
2023-03-24T01:05:22.472Z,91.80
2023-03-24T01:06:22.527Z,91.80
2023-03-24T01:07:22.471Z,91.91
2023-03-24T01:08:22.447Z,91.91
2023-03-24T01:09:22.419Z,91.91
2023-03-24T01:10:22.440Z,92.11
2023-03-24T01:11:22.443Z,92.11
2023-03-24T01:12:22.391Z,92.01
2023-03-24T01:13:22.399Z,92.11
2023-03-24T01:14:22.721Z,92.21
2023-03-24T01:15:22.351Z,92.11
2023-03-24T01:16:22.427Z,92.11
2023-03-24T01:17:22.364Z,92.01
2023-03-24T01:18:22.953Z,92.01
2023-03-24T01:19:22.359Z,92.01
2023-03-24T01:20:22.280Z,92.01
2023-03-24T01:21:22.263Z,92.11
2023-03-24T01:22:22.636Z,92.21
2023-03-24T01:23:22.246Z,92.11
2023-03-24T01:24:22.252Z,92.01
2023-03-24T01:25:22.294Z,92.11
2023-03-24T01:26:22.340Z,92.11
2023-03-24T01:27:22.235Z,92.11
2023-03-24T01:28:22.190Z,91.91
2023-03-24T01:29:22.443Z,91.91
2023-03-24T01:30:22.268Z,92.01
2023-03-24T01:31:22.683Z,92.01
2023-03-24T01:32:22.156Z,92.01
2023-03-24T01:33:22.536Z,92.01
2023-03-24T01:34:22.121Z,92.11
2023-03-24T01:35:22.085Z,92.11
2023-03-24T01:36:22.117Z,92.11
2023-03-24T01:37:22.055Z,92.11
2023-03-24T01:38:22.087Z,92.21
2023-03-24T01:39:22.065Z,92.11
2023-03-24T01:40:22.024Z,92.11
2023-03-24T01:41:22.064Z,92.11
2023-03-24T01:42:22.753Z,92.11
2023-03-24T01:43:22.007Z,92.11
2023-03-24T01:44:22.032Z,92.21
2023-03-24T01:45:22.368Z,92.21
2023-03-24T01:46:22.024Z,92.11
2023-03-24T01:47:22.050Z,92.11
2023-03-24T01:48:21.915Z,92.11
2023-03-24T01:49:21.922Z,92.11
2023-03-24T01:50:22.508Z,92.11
2023-03-24T01:51:22.038Z,92.11
2023-03-24T01:52:21.899Z,92.21
2023-03-24T01:53:21.861Z,92.42
2023-03-24T01:54:21.859Z,92.42
2023-03-24T01:55:21.870Z,92.42
2023-03-24T01:56:23.250Z,92.52
2023-03-24T01:57:21.822Z,92.62
2023-03-24T01:58:21.812Z,92.62
2023-03-24T01:59:21.827Z,92.52
2023-03-24T02:00:21.854Z,92.52
2023-03-24T02:01:21.873Z,92.52
2023-03-24T02:02:22.535Z,92.52
2023-03-24T02:03:21.754Z,92.52
2023-03-24T02:04:21.796Z,92.52
2023-03-24T02:05:21.728Z,92.52
2023-03-24T02:06:21.763Z,92.42
2023-03-24T02:07:21.776Z,92.52
2023-03-24T02:08:21.829Z,92.32
2023-03-24T02:09:21.719Z,92.32
2023-03-24T02:10:21.647Z,92.21
2023-03-24T02:11:22.048Z,92.21
2023-03-24T02:12:23.574Z,92.21
2023-03-24T02:13:21.656Z,92.11
2023-03-24T02:14:21.594Z,92.01
2023-03-24T02:15:21.574Z,92.01
2023-03-24T02:16:21.775Z,92.01
2023-03-24T02:17:21.557Z,92.01
2023-03-24T02:18:21.797Z,92.01
2023-03-24T02:19:23.529Z,92.01
2023-03-24T02:20:21.544Z,92.01
2023-03-24T02:21:21.529Z,91.86
2023-03-24T02:22:21.941Z,91.86
2023-03-24T02:23:21.476Z,91.76
2023-03-24T02:24:21.458Z,91.76
2023-03-24T02:25:21.450Z,91.76
2023-03-24T02:26:21.444Z,91.76
2023-03-24T02:27:22.032Z,91.76
2023-03-24T02:28:21.717Z,91.76
2023-03-24T02:29:21.715Z,91.66
2023-03-24T02:30:21.386Z,91.66
2023-03-24T02:31:21.443Z,91.56
2023-03-24T02:32:21.394Z,91.56
2023-03-24T02:33:21.992Z,91.56
2023-03-24T02:34:21.397Z,91.66
2023-03-24T02:35:21.338Z,91.46
2023-03-24T02:36:21.977Z,91.56
2023-03-24T02:37:21.309Z,91.56
2023-03-24T02:38:21.446Z,91.56
2023-03-24T02:39:21.276Z,91.56
2023-03-24T02:40:21.258Z,91.46
2023-03-24T02:41:21.280Z,91.35
2023-03-24T02:42:21.329Z,91.35
2023-03-24T02:43:21.462Z,91.35
2023-03-24T02:44:21.283Z,91.25
2023-03-24T02:45:21.245Z,91.25
2023-03-24T02:46:21.198Z,91.15
2023-03-24T02:47:21.696Z,91.25
2023-03-24T02:48:21.149Z,91.56
2023-03-24T02:49:21.145Z,92.07
2023-03-24T02:50:21.134Z,92.68
2023-03-24T02:51:21.154Z,92.68
2023-03-24T02:52:21.216Z,92.88
2023-03-24T02:53:21.140Z,93.19
2023-03-24T02:54:21.133Z,93.50
2023-03-24T02:55:21.135Z,94.01
2023-03-24T02:56:21.056Z,94.56
2023-03-24T02:57:21.068Z,94.97
2023-03-24T02:58:21.094Z,95.18
2023-03-24T02:59:21.161Z,95.28
2023-03-24T03:00:21.174Z,95.79
2023-03-24T03:01:21.168Z,96.30
2023-03-24T03:02:21.234Z,96.71
2023-03-24T03:03:20.994Z,96.71
2023-03-24T03:04:20.996Z,97.02
2023-03-24T03:05:21.041Z,97.12
2023-03-24T03:06:21.222Z,96.92
2023-03-24T03:07:21.075Z,97.02
2023-03-24T03:08:20.945Z,97.02
2023-03-24T03:09:21.320Z,97.02
2023-03-24T03:10:20.862Z,97.33
2023-03-24T03:11:20.938Z,97.53
2023-03-24T03:12:21.486Z,97.74
2023-03-24T03:13:20.836Z,97.63
2023-03-24T03:14:20.802Z,97.83
2023-03-24T03:15:20.807Z,97.94
2023-03-24T03:16:20.828Z,98.04
2023-03-24T03:17:20.780Z,98.08
2023-03-24T03:18:20.782Z,98.19
2023-03-24T03:19:21.117Z,98.35
2023-03-24T03:20:20.737Z,98.55
2023-03-24T03:21:20.755Z,98.45
2023-03-24T03:22:20.836Z,98.35
2023-03-24T03:23:20.710Z,98.08
2023-03-24T03:24:20.688Z,98.29
2023-03-24T03:25:20.827Z,98.49
2023-03-24T03:26:20.725Z,98.49
2023-03-24T03:27:20.671Z,98.60
2023-03-24T03:28:20.864Z,98.60
2023-03-24T03:29:20.964Z,98.90
2023-03-24T03:30:20.785Z,98.90
2023-03-24T03:31:20.623Z,98.90
2023-03-24T03:32:20.980Z,99.01
2023-03-24T03:33:20.598Z,99.21
2023-03-24T03:34:20.609Z,99.11
2023-03-24T03:35:20.565Z,99.31
2023-03-24T03:36:21.121Z,99.41
2023-03-24T03:37:20.638Z,99.31
2023-03-24T03:38:20.543Z,99.52
2023-03-24T03:39:20.522Z,99.62
2023-03-24T03:40:21.138Z,99.82
2023-03-24T03:41:20.520Z,99.82
2023-03-24T03:42:21.242Z,99.62
2023-03-24T03:43:20.478Z,99.82
2023-03-24T03:44:20.485Z,99.82
2023-03-24T03:45:20.502Z,99.93
2023-03-24T03:46:20.694Z,99.99
2023-03-24T03:47:20.454Z,99.99
2023-03-24T03:48:20.912Z,99.99
2023-03-24T03:49:20.385Z,99.99
2023-03-24T03:50:20.442Z,99.98
2023-03-24T03:51:20.359Z,99.98
2023-03-24T03:52:20.495Z,99.98
2023-03-24T03:53:20.322Z,99.99
2023-03-24T03:54:20.313Z,99.99
2023-03-24T03:55:20.497Z,99.99
2023-03-24T03:56:20.291Z,99.99
2023-03-24T03:57:20.382Z,99.99
2023-03-24T03:58:20.311Z,99.99
2023-03-24T03:59:20.368Z,99.99
2023-03-24T04:00:20.381Z,99.99
2023-03-24T04:01:20.365Z,99.99
2023-03-24T04:02:20.219Z,99.99
2023-03-24T04:03:20.453Z,99.99
2023-03-24T04:04:20.353Z,99.99
2023-03-24T04:05:20.609Z,99.99
2023-03-24T04:06:20.177Z,99.99
2023-03-24T04:07:20.879Z,99.99
2023-03-24T04:08:27.183Z,99.99
2023-03-24T04:09:20.236Z,99.99
2023-03-24T04:10:20.074Z,99.99
2023-03-24T04:11:20.244Z,99.99
2023-03-24T04:12:20.095Z,99.99
2023-03-24T04:13:20.639Z,99.99
2023-03-24T04:14:20.027Z,99.99
2023-03-24T04:15:20.131Z,99.99
2023-03-24T04:16:20.135Z,99.99
2023-03-24T04:17:20.084Z,99.99
2023-03-24T04:18:19.988Z,99.99
2023-03-24T04:19:19.976Z,99.99
2023-03-24T04:20:20.123Z,99.99
2023-03-24T04:21:19.955Z,99.99
2023-03-24T04:22:19.950Z,99.99
2023-03-24T04:23:19.949Z,99.99
2023-03-24T04:24:20.199Z,99.99
2023-03-24T04:25:20.143Z,99.99
2023-03-24T04:26:19.897Z,99.99
2023-03-24T04:27:20.171Z,99.99
2023-03-24T04:28:19.860Z,99.99
2023-03-24T04:29:19.861Z,99.99
2023-03-24T04:30:19.851Z,99.99
2023-03-24T04:31:19.905Z,99.99
2023-03-24T04:32:20.809Z,99.99
2023-03-24T04:33:19.792Z,99.99
2023-03-24T04:34:20.214Z,99.99
2023-03-24T04:35:19.789Z,99.99
2023-03-24T04:36:19.891Z,99.99
2023-03-24T04:37:19.773Z,99.99
2023-03-24T04:38:19.941Z,99.99
2023-03-24T04:39:19.714Z,99.99
2023-03-24T04:40:19.730Z,99.99
2023-03-24T04:41:19.711Z,99.99
2023-03-24T04:42:19.718Z,99.99
2023-03-24T04:43:19.688Z,99.99
2023-03-24T04:44:19.638Z,99.99
2023-03-24T04:45:19.650Z,99.99
2023-03-24T04:46:19.714Z,99.93
2023-03-24T04:47:19.688Z,99.84
2023-03-24T04:48:19.597Z,99.84
2023-03-24T04:49:19.619Z,99.99
2023-03-24T04:50:19.575Z,99.84
2023-03-24T04:51:19.576Z,99.63
2023-03-24T04:52:19.590Z,99.84
2023-03-24T04:53:19.701Z,99.52
2023-03-24T04:54:19.517Z,99.18
2023-03-24T04:55:19.508Z,99.07
2023-03-24T04:56:19.513Z,99.27
2023-03-24T04:57:19.540Z,99.18
2023-03-24T04:58:19.464Z,99.18
2023-03-24T04:59:19.483Z,99.07
2023-03-24T05:00:19.504Z,99.27
2023-03-24T05:01:19.587Z,98.77
2023-03-24T05:02:21.666Z,98.56
2023-03-24T05:03:19.492Z,98.36
2023-03-24T05:04:19.431Z,98.46
2023-03-24T05:05:19.408Z,98.46
2023-03-24T05:06:19.428Z,98.46
2023-03-24T05:07:19.407Z,98.36
2023-03-24T05:08:19.799Z,98.56
2023-03-24T05:09:19.342Z,98.56
2023-03-24T05:10:22.021Z,98.46
2023-03-24T05:11:19.323Z,98.25
2023-03-24T05:12:19.306Z,98.46
2023-03-24T05:13:19.294Z,98.15
2023-03-24T05:14:19.272Z,97.90
2023-03-24T05:15:19.353Z,97.70
2023-03-24T05:16:19.253Z,97.80
2023-03-24T05:17:19.232Z,97.60
2023-03-24T05:18:19.232Z,97.29
2023-03-24T05:19:19.212Z,97.08
2023-03-24T05:20:19.249Z,97.08
2023-03-24T05:21:20.707Z,97.19
2023-03-24T05:22:19.230Z,96.88
2023-03-24T05:23:19.178Z,96.88
2023-03-24T05:24:19.224Z,96.68
2023-03-24T05:25:19.217Z,96.88
2023-03-24T05:26:19.107Z,96.63
2023-03-24T05:27:19.733Z,96.53
2023-03-24T05:28:19.378Z,96.63
2023-03-24T05:29:19.094Z,96.53
2023-03-24T05:30:19.114Z,96.12
2023-03-24T05:31:19.537Z,96.12
2023-03-24T05:32:19.047Z,96.22
2023-03-24T05:33:19.035Z,96.22
2023-03-24T05:34:19.015Z,96.43
2023-03-24T05:35:19.112Z,96.22
2023-03-24T05:36:19.146Z,96.12
2023-03-24T05:37:19.383Z,95.81
2023-03-24T05:38:19.156Z,95.92
2023-03-24T05:39:18.939Z,96.02
2023-03-24T05:40:19.059Z,96.02
2023-03-24T05:41:18.941Z,96.12
2023-03-24T05:42:18.900Z,96.12
2023-03-24T05:43:18.954Z,96.02
2023-03-24T05:44:18.900Z,95.92
2023-03-24T05:45:18.897Z,96.33
2023-03-24T05:46:18.903Z,96.12
2023-03-24T05:47:19.135Z,96.02
2023-03-24T05:48:19.448Z,96.12
2023-03-24T05:49:19.306Z,95.81
2023-03-24T05:50:18.851Z,95.92
2023-03-24T05:51:18.790Z,95.67
2023-03-24T05:52:18.993Z,95.47
2023-03-24T05:53:18.762Z,95.67
2023-03-24T05:54:18.800Z,96.08
2023-03-24T05:55:18.789Z,95.87
2023-03-24T05:56:18.731Z,96.12
2023-03-24T05:57:18.736Z,95.77
2023-03-24T05:58:18.878Z,95.77
2023-03-24T05:59:18.796Z,96.18
2023-03-24T06:00:18.788Z,96.18
2023-03-24T06:01:18.830Z,95.97
2023-03-24T06:02:18.873Z,95.87
2023-03-24T06:03:19.146Z,95.87
2023-03-24T06:04:18.625Z,95.77
2023-03-24T06:05:18.634Z,95.97
2023-03-24T06:06:18.655Z,96.08
2023-03-24T06:07:18.629Z,96.18
2023-03-24T06:08:18.571Z,96.18
2023-03-24T06:09:18.997Z,96.28
2023-03-24T06:10:19.013Z,96.08
2023-03-24T06:11:18.564Z,96.08
2023-03-24T06:12:19.185Z,96.38
2023-03-24T06:13:19.186Z,96.38
2023-03-24T06:14:18.489Z,96.18
2023-03-24T06:15:18.709Z,95.97
2023-03-24T06:16:18.486Z,95.87
2023-03-24T06:17:18.469Z,95.77
2023-03-24T06:18:18.453Z,95.77
2023-03-24T06:19:18.458Z,95.57
2023-03-24T06:20:18.945Z,95.67
2023-03-24T06:21:18.426Z,95.57
2023-03-24T06:22:18.464Z,95.57
2023-03-24T06:23:18.494Z,95.57
2023-03-24T06:24:18.358Z,95.52
2023-03-24T06:25:18.542Z,95.42
2023-03-24T06:26:18.339Z,95.52
2023-03-24T06:27:18.492Z,95.52
2023-03-24T06:28:18.335Z,95.21
2023-03-24T06:29:18.757Z,95.73
2023-03-24T06:30:19.808Z,95.32
2023-03-24T06:31:18.485Z,95.42
2023-03-24T06:32:18.258Z,95.52
2023-03-24T06:33:18.261Z,95.32
2023-03-24T06:34:18.851Z,95.42
2023-03-24T06:35:18.449Z,95.42
2023-03-24T06:36:18.222Z,95.52
2023-03-24T06:37:18.186Z,95.32
2023-03-24T06:38:18.202Z,95.12
2023-03-24T06:39:18.167Z,94.60
2023-03-24T06:40:18.204Z,94.56
2023-03-24T06:41:18.157Z,94.56
2023-03-24T06:42:18.137Z,94.46
2023-03-24T06:43:18.161Z,94.66
2023-03-24T06:44:18.256Z,94.76
2023-03-24T06:45:18.102Z,94.66
2023-03-24T06:46:18.415Z,95.07
2023-03-24T06:47:18.077Z,94.97
2023-03-24T06:48:18.082Z,95.37
2023-03-24T06:49:18.164Z,95.48
2023-03-24T06:50:18.051Z,95.37
2023-03-24T06:51:18.045Z,95.37
2023-03-24T06:52:18.120Z,94.97
2023-03-24T06:53:18.048Z,94.97
2023-03-24T06:54:17.992Z,94.87
2023-03-24T06:55:17.967Z,95.03
2023-03-24T06:56:18.034Z,95.03
2023-03-24T06:57:18.223Z,95.03
2023-03-24T06:58:17.984Z,94.92
2023-03-24T06:59:17.913Z,95.03
2023-03-24T07:00:17.907Z,95.03
2023-03-24T07:01:18.038Z,95.13
2023-03-24T07:02:17.966Z,95.13
2023-03-24T07:03:17.932Z,94.92
2023-03-24T07:04:17.852Z,94.62
2023-03-24T07:05:17.853Z,94.92
2023-03-24T07:06:17.934Z,95.64
2023-03-24T07:08:36.397Z,95.23
2023-03-24T07:09:19.376Z,94.72
2023-03-24T07:10:17.832Z,94.72
2023-03-24T07:11:18.230Z,94.62
2023-03-24T07:12:17.752Z,95.03
2023-03-24T07:13:17.739Z,94.92
2023-03-24T07:14:17.712Z,95.03
2023-03-24T07:15:17.717Z,94.57
2023-03-24T07:16:18.094Z,94.62
2023-03-24T07:17:18.123Z,94.17
2023-03-24T07:18:17.860Z,94.47
2023-03-24T07:19:18.025Z,94.57
2023-03-24T07:20:17.673Z,93.86
2023-03-24T07:21:17.661Z,94.37
2023-03-24T07:22:17.617Z,94.17
2023-03-24T07:23:17.627Z,93.55
2023-03-24T07:24:17.665Z,93.55
2023-03-24T07:25:17.568Z,93.15
2023-03-24T07:26:17.566Z,93.86
2023-03-24T07:27:17.627Z,93.10
2023-03-24T07:28:17.616Z,93.10
2023-03-24T07:29:17.598Z,93.10
2023-03-24T07:30:20.551Z,92.60
2023-03-24T07:31:18.589Z,92.14
2023-03-24T07:32:17.670Z,91.94
2023-03-24T07:33:17.655Z,91.94
2023-03-24T07:34:17.458Z,91.33
2023-03-24T07:35:17.806Z,90.31
2023-03-24T07:36:17.495Z,90.01
2023-03-24T07:37:17.445Z,90.58
2023-03-24T07:38:18.410Z,89.87
2023-03-24T07:39:17.550Z,89.26
2023-03-24T07:40:17.434Z,88.85
2023-03-24T07:41:17.410Z,89.66
2023-03-24T07:42:18.539Z,89.56
2023-03-24T07:43:17.398Z,89.26
2023-03-24T07:44:17.348Z,89.66
2023-03-24T07:45:17.505Z,89.87
2023-03-24T07:46:17.448Z,90.17
2023-03-24T07:47:17.409Z,89.36
2023-03-24T07:48:17.329Z,89.56
2023-03-24T07:49:19.834Z,90.07
2023-03-24T07:50:17.897Z,89.66
2023-03-24T07:51:18.207Z,89.56
2023-03-24T07:52:18.226Z,90.42
2023-03-24T07:53:17.321Z,90.42
2023-03-24T07:54:17.279Z,90.92
2023-03-24T07:55:17.272Z,90.92
2023-03-24T07:56:17.186Z,91.64
2023-03-24T07:57:17.202Z,91.43
2023-03-24T07:58:17.194Z,91.74
2023-03-24T07:59:17.173Z,92.45
2023-03-24T08:00:17.127Z,93.06
2023-03-24T08:01:17.100Z,92.70
2023-03-24T08:02:17.358Z,92.60
2023-03-24T08:03:17.254Z,92.29
2023-03-24T08:04:17.244Z,92.70
2023-03-24T08:05:17.103Z,92.70
2023-03-24T08:06:17.151Z,93.01
2023-03-24T08:07:17.033Z,92.90
2023-03-24T08:08:17.075Z,93.51
2023-03-24T08:09:17.105Z,93.31
2023-03-24T08:10:17.046Z,93.41
2023-03-24T08:11:17.051Z,93.82
2023-03-24T08:12:20.513Z,94.02
2023-03-24T08:13:16.974Z,94.73
2023-03-24T08:14:17.004Z,94.32
2023-03-24T08:15:17.335Z,93.76
2023-03-24T08:16:17.473Z,93.96
2023-03-24T08:17:17.886Z,93.55
2023-03-24T08:18:16.907Z,93.96
2023-03-24T08:19:17.244Z,94.07
2023-03-24T08:20:17.302Z,94.27
2023-03-24T08:21:16.860Z,94.37
2023-03-24T08:22:16.860Z,94.27
2023-03-24T08:23:16.861Z,94.88
2023-03-24T08:24:16.876Z,95.08
2023-03-24T08:25:16.791Z,94.98
2023-03-24T08:26:16.785Z,94.68
2023-03-24T08:27:16.776Z,94.57
2023-03-24T08:28:17.122Z,94.78
2023-03-24T08:29:16.778Z,94.68
2023-03-24T08:30:16.751Z,94.78
2023-03-24T08:31:16.943Z,94.17
2023-03-24T08:32:16.905Z,94.37
2023-03-24T08:33:16.814Z,94.47
2023-03-24T08:34:16.715Z,94.68
2023-03-24T08:35:16.670Z,94.68
2023-03-24T08:36:16.679Z,94.78
2023-03-24T08:37:16.854Z,94.37
2023-03-24T08:38:18.756Z,94.47
2023-03-24T08:39:16.636Z,94.37
2023-03-24T08:40:16.710Z,94.27
2023-03-24T08:41:16.619Z,94.37
2023-03-24T08:42:16.599Z,94.47
2023-03-24T08:43:16.597Z,94.57
2023-03-24T08:44:17.074Z,93.86
2023-03-24T08:45:16.812Z,94.27
2023-03-24T08:46:17.355Z,94.47
2023-03-24T08:47:16.608Z,94.68
2023-03-24T08:48:16.649Z,93.96
2023-03-24T08:49:16.546Z,94.17
2023-03-24T08:50:16.883Z,93.96
2023-03-24T08:51:16.501Z,93.66
2023-03-24T08:52:17.147Z,93.86
2023-03-24T08:53:16.706Z,93.51
2023-03-24T08:54:16.438Z,93.71
2023-03-24T08:55:16.439Z,93.51
2023-03-24T08:56:16.454Z,93.51
2023-03-24T08:57:16.410Z,93.71
2023-03-24T08:58:16.475Z,93.62
2023-03-24T08:59:16.461Z,93.01
2023-03-24T09:00:16.484Z,92.60
2023-03-24T09:01:16.349Z,92.70
2023-03-24T09:02:16.343Z,93.10
2023-03-24T09:03:16.325Z,92.86
2023-03-24T09:04:16.547Z,93.06
2023-03-24T09:05:16.314Z,92.86
2023-03-24T09:06:16.278Z,92.86
2023-03-24T09:07:16.248Z,92.76
2023-03-24T09:08:16.287Z,92.55
2023-03-24T09:09:16.259Z,92.45
2023-03-24T09:10:16.244Z,92.45
2023-03-24T09:11:16.239Z,92.65
2023-03-24T09:12:16.191Z,92.55
2023-03-24T09:13:16.191Z,92.35
2023-03-24T09:14:16.213Z,92.55
2023-03-24T09:15:16.189Z,92.35
2023-03-24T09:16:16.200Z,92.76
2023-03-24T09:17:16.413Z,92.55
2023-03-24T09:18:16.223Z,92.14
2023-03-24T09:19:16.198Z,92.25
2023-03-24T09:20:16.408Z,92.14
2023-03-24T09:21:16.105Z,92.25
2023-03-24T09:22:16.097Z,92.14
2023-03-24T09:23:16.058Z,91.84
2023-03-24T09:24:16.073Z,92.04
2023-03-24T09:25:16.031Z,92.35
2023-03-24T09:26:16.149Z,92.14
2023-03-24T09:27:16.281Z,92.41
2023-03-24T09:28:15.989Z,91.64
2023-03-24T09:29:16.194Z,91.09
2023-03-24T09:30:16.015Z,91.49
2023-03-24T09:31:16.016Z,91.60
2023-03-24T09:32:16.030Z,91.39
2023-03-24T09:33:16.034Z,91.29
2023-03-24T09:34:15.958Z,90.99
2023-03-24T09:35:15.891Z,90.74
2023-03-24T09:36:15.930Z,90.74
2023-03-24T09:37:15.876Z,89.92
2023-03-24T09:38:16.479Z,90.03
2023-03-24T09:39:16.392Z,89.28
2023-03-24T09:40:15.822Z,89.17
2023-03-24T09:41:15.984Z,88.62
2023-03-24T09:42:15.834Z,88.52
2023-03-24T09:43:15.789Z,88.42
2023-03-24T09:44:16.413Z,88.48
2023-03-24T09:45:15.870Z,86.96
2023-03-24T09:46:15.792Z,87.16
2023-03-24T09:47:16.004Z,86.86
2023-03-24T09:48:15.767Z,85.84
2023-03-24T09:49:16.565Z,86.25
2023-03-24T09:50:16.065Z,86.41
2023-03-24T09:51:15.714Z,86.41
2023-03-24T09:52:15.786Z,86.21
2023-03-24T09:53:15.668Z,85.86
2023-03-24T09:54:15.682Z,84.85
2023-03-24T09:55:15.688Z,84.75
2023-03-24T09:56:15.654Z,85.05
2023-03-24T09:57:16.504Z,84.85
2023-03-24T09:58:15.634Z,85.05
2023-03-24T09:59:15.587Z,84.34
2023-03-24T10:00:15.587Z,84.70
2023-03-24T10:01:15.815Z,84.61
2023-03-24T10:02:15.545Z,84.14
2023-03-24T10:03:15.768Z,84.04
2023-03-24T10:04:15.849Z,83.73
2023-03-24T10:05:15.672Z,83.43
2023-03-24T10:06:15.505Z,83.43
2023-03-24T10:07:15.507Z,83.49
2023-03-24T10:09:12.886Z,82.17
2023-03-24T10:10:11.612Z,81.87
2023-03-24T10:11:11.919Z,81.06
2023-03-24T10:12:11.962Z,79.44
2023-03-24T10:13:11.408Z,79.13
2023-03-24T10:14:11.688Z,78.42
2023-03-24T10:15:11.141Z,77.92
2023-03-24T10:16:11.291Z,78.22
2023-03-24T10:17:11.049Z,78.12
2023-03-24T10:18:11.105Z,78.42
2023-03-24T10:19:11.527Z,78.63
2023-03-24T10:20:12.100Z,78.73
2023-03-24T10:21:11.434Z,79.24
2023-03-24T10:22:11.678Z,79.24
2023-03-24T10:23:11.032Z,79.47
2023-03-24T10:24:11.359Z,80.08
2023-03-24T10:25:12.463Z,80.90
2023-03-24T10:26:11.150Z,80.90
2023-03-24T10:27:11.361Z,81.40
2023-03-24T10:28:11.808Z,81.30
2023-03-24T10:29:11.076Z,81.40
2023-03-24T10:30:10.889Z,81.40
2023-03-24T10:31:10.938Z,81.50
2023-03-24T10:32:10.903Z,81.06
2023-03-24T10:33:10.903Z,80.76
2023-03-24T10:34:10.905Z,80.52
2023-03-24T10:35:10.998Z,80.41
2023-03-24T10:36:11.809Z,80.11
2023-03-24T10:37:10.772Z,79.97
2023-03-24T10:38:10.833Z,79.46
2023-03-24T10:39:18.989Z,79.22
2023-03-24T10:40:11.803Z,78.62
2023-03-24T10:41:11.560Z,78.62
2023-03-24T10:42:10.746Z,78.11
2023-03-24T10:43:11.526Z,77.87
2023-03-24T10:44:10.738Z,78.08
2023-03-24T10:45:10.768Z,77.61
2023-03-24T10:46:10.695Z,77.81
2023-03-24T10:47:10.691Z,77.61
2023-03-24T10:48:10.822Z,77.71
2023-03-24T10:49:10.776Z,77.61
2023-03-24T10:50:12.495Z,77.40
2023-03-24T10:51:10.637Z,77.71
2023-03-24T10:52:10.745Z,78.11
2023-03-24T10:53:10.654Z,78.15
2023-03-24T10:54:10.605Z,77.75
2023-03-24T10:55:10.572Z,78.05
2023-03-24T10:56:10.669Z,78.15
2023-03-24T10:57:10.905Z,78.11
2023-03-24T10:58:10.652Z,77.81
2023-03-24T10:59:10.735Z,77.61
2023-03-24T11:00:10.705Z,77.50
2023-03-24T11:01:10.522Z,77.20
2023-03-24T11:02:10.526Z,77.10
2023-03-24T11:03:10.528Z,76.50
2023-03-24T11:04:10.512Z,75.79
2023-03-24T11:05:11.147Z,75.89
2023-03-24T11:06:10.502Z,76.19
2023-03-24T11:07:10.486Z,75.38
2023-03-24T11:08:10.618Z,75.07
2023-03-24T11:09:10.911Z,75.28
2023-03-24T11:10:11.365Z,74.63
2023-03-24T11:11:10.868Z,74.57
2023-03-24T11:12:10.640Z,74.57
2023-03-24T11:13:10.875Z,74.47
2023-03-24T11:14:10.354Z,74.27
2023-03-24T11:15:19.684Z,74.13
2023-03-24T11:16:11.355Z,74.33
2023-03-24T11:17:10.392Z,74.33
2023-03-24T11:18:10.680Z,73.83
2023-03-24T11:19:11.136Z,73.63
2023-03-24T11:20:10.319Z,73.32
2023-03-24T11:21:10.731Z,73.49
2023-03-24T11:22:10.630Z,72.78
2023-03-24T11:23:10.808Z,72.14
2023-03-24T11:24:10.623Z,71.84
2023-03-24T11:25:10.647Z,71.23
2023-03-24T11:26:10.354Z,71.33
2023-03-24T11:27:11.263Z,71.64
2023-03-24T11:28:10.618Z,71.44
2023-03-24T11:29:10.261Z,71.33
2023-03-24T11:30:10.099Z,70.62
2023-03-24T11:31:11.722Z,70.53
2023-03-24T11:32:10.108Z,70.86
2023-03-24T11:33:10.063Z,70.36
2023-03-24T11:34:10.091Z,70.76
2023-03-24T11:35:10.342Z,70.36
2023-03-24T11:36:10.392Z,70.86
2023-03-24T11:37:10.176Z,70.76
2023-03-24T11:38:10.142Z,70.32
2023-03-24T11:39:10.023Z,69.71
2023-03-24T11:40:10.182Z,69.71
2023-03-24T11:41:09.962Z,69.42
2023-03-24T11:42:09.964Z,69.18
2023-03-24T11:43:10.008Z,69.08
2023-03-24T11:44:09.947Z,68.17
2023-03-24T11:45:09.983Z,67.97
2023-03-24T11:46:09.991Z,68.07
2023-03-24T11:47:09.972Z,68.07
2023-03-24T11:48:09.897Z,67.76
2023-03-24T11:49:09.905Z,67.83
2023-03-24T11:50:10.041Z,67.46
2023-03-24T11:51:09.856Z,67.93
2023-03-24T11:52:10.051Z,67.02
2023-03-24T11:53:09.816Z,67.33
2023-03-24T11:54:09.852Z,67.53
2023-03-24T11:55:09.774Z,67.33
2023-03-24T11:56:09.780Z,67.13
2023-03-24T11:57:09.835Z,67.13
2023-03-24T11:58:09.824Z,67.02
2023-03-24T11:59:10.220Z,67.02
2023-03-24T12:00:09.974Z,67.13
2023-03-24T12:01:09.718Z,67.43
2023-03-24T12:02:09.765Z,67.33
2023-03-24T12:03:09.816Z,67.23
2023-03-24T12:04:09.677Z,67.13
2023-03-24T12:05:09.707Z,67.13
2023-03-24T12:06:09.772Z,67.33
2023-03-24T12:07:09.651Z,67.53
2023-03-24T12:08:09.728Z,67.43
2023-03-24T12:09:09.609Z,67.53
2023-03-24T12:10:09.770Z,67.63
2023-03-24T12:11:09.589Z,67.76
2023-03-24T12:12:09.560Z,67.66
2023-03-24T12:13:13.569Z,67.36
2023-03-24T12:14:10.634Z,67.36
2023-03-24T12:15:20.657Z,67.26
2023-03-24T12:16:10.636Z,67.16
2023-03-24T12:17:09.776Z,67.90
2023-03-24T12:18:09.542Z,68.10
2023-03-24T12:19:09.637Z,68.10
2023-03-24T12:20:10.924Z,68.30
2023-03-24T12:21:09.547Z,68.20
2023-03-24T12:22:09.526Z,68.00
2023-03-24T12:23:09.677Z,68.00
2023-03-24T12:24:09.447Z,68.30
2023-03-24T12:25:09.466Z,67.80
2023-03-24T12:26:09.620Z,68.10
2023-03-24T12:27:09.326Z,68.60
2023-03-24T12:28:09.402Z,68.00
2023-03-24T12:29:09.788Z,67.90
2023-03-24T12:30:09.400Z,68.30
2023-03-24T12:31:09.300Z,68.40
2023-03-24T12:32:09.434Z,68.10
2023-03-24T12:33:09.345Z,67.90
2023-03-24T12:34:09.670Z,67.69
2023-03-24T12:35:09.452Z,68.03
2023-03-24T12:36:09.303Z,67.52
2023-03-24T12:37:09.218Z,67.63
2023-03-24T12:38:09.388Z,68.23
2023-03-24T12:39:09.229Z,68.57
2023-03-24T12:40:09.786Z,68.47
2023-03-24T12:41:10.306Z,68.67
2023-03-24T12:42:09.191Z,68.67
2023-03-24T12:43:10.122Z,68.37
2023-03-24T12:44:09.165Z,68.26
2023-03-24T12:45:09.122Z,68.26
2023-03-24T12:46:09.246Z,68.57
2023-03-24T12:47:09.169Z,68.47
2023-03-24T12:48:09.067Z,68.37
2023-03-24T12:49:09.063Z,68.23
2023-03-24T12:50:09.134Z,68.06
2023-03-24T12:51:09.111Z,68.26
2023-03-24T12:52:09.022Z,69.07
2023-03-24T12:53:10.414Z,68.97
2023-03-24T12:54:09.336Z,68.97